Time;durP1;ratioP1;P1;durP2;ratioP2;P2;SDS_P1;SDS_P2;PMS_P1;PMS_P2;Temp;Humidity;BMP_temperature;BMP_pressure;BME280_temperature;BME280_humidity;BME280_pressure;Samples;Min_cycle;Max_cycle;Signal;HPM_P1;HPM_P2
2021/07/08 00:00:07;;;;;;;;;;;;;;;18.65;89.49;99895.66;5034512;28;1914;-65
2021/07/08 00:02:33;;;;;;;;;;;;;;;18.64;89.33;99894.06;5034565;28;850;-65
2021/07/08 00:05:01;;;;;;;;;;;;;;;18.59;89.43;99903.06;5034581;28;878;-65
2021/07/08 00:07:28;;;;;;;;;;;;;;;18.54;89.56;99898.84;5034383;28;909;-65
2021/07/08 00:09:54;;;;;;;;;;;;;;;18.51;89.51;99896.16;5034371;28;830;-65
2021/07/08 00:12:20;;;;;;;;;;;;;;;18.43;89.47;99904.00;5034520;28;1054;-65
2021/07/08 00:14:47;;;;;;;;;;;;;;;18.40;89.47;99907.72;5034080;28;1154;-65
2021/07/08 00:17:13;;;;;;;;;;;;;;;18.36;89.73;99895.88;5034263;28;858;-65
2021/07/08 00:19:40;;;;;;;;;;;;;;;18.34;89.69;99903.94;5034153;28;870;-65
2021/07/08 00:22:06;;;;;;;;;;;;;;;18.34;89.81;99903.94;5034127;28;1971;-65
2021/07/08 00:24:32;;;;;;;;;;;;;;;18.34;89.94;99910.31;5034029;28;799;-64
2021/07/08 00:26:58;;;;;;;;;;;;;;;18.39;90.23;99910.97;5034141;28;974;-64
2021/07/08 00:29:25;;;;;;;;;;;;;;;18.41;89.94;99908.50;5033980;28;807;-65
2021/07/08 00:31:52;;;;;;;;;;;;;;;18.40;90.10;99906.97;5034199;28;790;-64
2021/07/08 00:34:18;;;;;;;;;;;;;;;18.41;89.92;99903.69;5034232;28;846;-64
2021/07/08 00:36:45;;;;;;;;;;;;;;;18.45;90.05;99904.34;5034249;28;808;-64
2021/07/08 00:39:12;;;;;;;;;;;;;;;18.41;89.76;99908.50;5033947;28;876;-64
2021/07/08 00:41:39;;;;;;;;;;;;;;;18.38;89.71;99901.03;5033816;28;1889;-64
2021/07/08 00:44:05;;;;;;;;;;;;;;;18.33;89.54;99908.00;5033910;28;798;-64
2021/07/08 00:46:32;;;;;;;;;;;;;;;18.34;89.80;99907.53;5033999;28;831;-63
2021/07/08 00:48:59;;;;;;;;;;;;;;;18.43;89.96;99901.22;5033859;28;912;-64
2021/07/08 00:51:25;;;;;;;;;;;;;;;18.51;89.87;99898.97;5034426;28;783;-64
2021/07/08 00:53:52;;;;;;;;;;;;;;;18.52;89.72;99903.31;5033685;28;1190;-64
2021/07/08 00:56:19;;;;;;;;;;;;;;;18.53;89.57;99914.06;5033805;28;795;-64
2021/07/08 00:59:01;;;;;;;;;;;;;;;18.55;89.83;99908.78;5034022;28;747;-64
2021/07/08 01:01:28;;;;;;;;;;;;;;;18.49;89.53;99902.19;5033392;28;1947;-64
2021/07/08 01:03:55;;;;;;;;;;;;;;;18.40;89.51;99896.53;5033345;28;815;-64
2021/07/08 01:06:21;;;;;;;;;;;;;;;18.38;89.91;99901.81;5032284;28;795;-64
2021/07/08 01:08:48;;;;;;;;;;;;;;;18.35;89.96;99897.13;5033223;28;803;-64
2021/07/08 01:11:15;;;;;;;;;;;;;;;18.30;89.73;99900.50;5031890;28;1409;-64
2021/07/08 01:13:40;;;;;;;;;;;;;;;18.24;89.85;99902.31;5033174;28;1385;-64
2021/07/08 01:16:07;;;;;;;;;;;;;;;18.20;89.79;99893.25;5033191;28;839;-64
2021/07/08 01:18:33;;;;;;;;;;;;;;;18.16;89.90;99902.56;5032997;28;853;-64
2021/07/08 01:21:20;;;;;;;;;;;;;;;18.12;89.92;99893.50;5033046;28;1981;-64
2021/07/08 01:23:47;;;;;;;;;;;;;;;18.19;90.12;99891.69;5022488;28;1181;-64
2021/07/08 01:26:14;;;;;;;;;;;;;;;18.17;89.90;99892.91;5032954;28;807;-64
2021/07/08 01:28:40;;;;;;;;;;;;;;;18.17;89.98;99897.75;5032926;28;815;-64
2021/07/08 01:31:07;;;;;;;;;;;;;;;18.14;89.98;99898.66;5033031;28;847;-63
2021/07/08 01:33:34;;;;;;;;;;;;;;;18.16;90.00;99901.78;5032861;28;874;-63
2021/07/08 01:36:00;;;;;;;;;;;;;;;18.18;90.20;99899.31;5032732;28;870;-63
2021/07/08 01:38:27;;;;;;;;;;;;;;;18.27;90.29;99898.63;5032655;28;892;-62
2021/07/08 01:40:54;;;;;;;;;;;;;;;18.30;90.11;99904.06;5032598;28;1951;-62
2021/07/08 01:43:21;;;;;;;;;;;;;;;18.39;90.37;99911.75;5032699;28;827;-63
2021/07/08 01:45:48;;;;;;;;;;;;;;;18.44;90.30;99905.59;5032885;28;873;-62
2021/07/08 01:48:14;;;;;;;;;;;;;;;18.51;90.49;99905.31;5014871;28;1331;-62
2021/07/08 01:50:41;;;;;;;;;;;;;;;18.57;90.26;99911.91;5032666;28;866;-63
2021/07/08 01:53:07;;;;;;;;;;;;;;;18.59;90.27;99907.88;5032311;28;862;-62
2021/07/08 01:55:33;;;;;;;;;;;;;;;18.60;90.22;99906.63;5032401;28;819;-63
2021/07/08 01:58:02;;;;;;;;;;;;;;;18.56;90.14;99913.16;5032358;28;803;-63
2021/07/08 02:00:29;;;;;;;;;;;;;;;18.52;89.86;99911.69;5032218;28;1885;-63
2021/07/08 02:02:56;;;;;;;;;;;;;;;18.48;89.82;99920.25;5032299;28;811;-63
2021/07/08 02:05:24;;;;;;;;;;;;;;;18.45;89.87;99921.13;5032192;28;921;-63
2021/07/08 02:07:51;;;;;;;;;;;;;;;18.46;90.10;99922.72;5032211;28;877;-63
2021/07/08 02:10:18;;;;;;;;;;;;;;;18.52;90.12;99920.91;5032168;28;842;-63
2021/07/08 02:12:45;;;;;;;;;;;;;;;18.69;90.28;99913.09;5031959;28;982;-63
2021/07/08 02:15:13;;;;;;;;;;;;;;;18.87;90.37;99909.66;5031989;28;1236;-62
2021/07/08 02:17:40;;;;;;;;;;;;;;;19.03;90.12;99905.84;5031797;28;967;-63
2021/07/08 02:20:10;;;;;;;;;;;;;;;19.12;89.83;99914.31;5031934;28;1902;-63
2021/07/08 02:22:37;;;;;;;;;;;;;;;19.17;89.78;99902.50;5032046;28;787;-63
2021/07/08 02:25:04;;;;;;;;;;;;;;;19.23;89.64;99910.34;5031901;28;834;-63
2021/07/08 02:27:30;;;;;;;;;;;;;;;19.29;89.53;99914.88;5031896;28;847;-63
2021/07/08 02:29:56;;;;;;;;;;;;;;;19.35;89.30;99906.63;5031830;28;810;-63
2021/07/08 02:32:22;;;;;;;;;;;;;;;19.36;89.14;99908.97;5031937;28;819;-64
2021/07/08 02:34:49;;;;;;;;;;;;;;;19.39;89.14;99907.28;5031743;28;823;-63
2021/07/08 02:37:15;;;;;;;;;;;;;;;19.45;88.99;99913.06;5031744;28;807;-62
2021/07/08 02:39:42;;;;;;;;;;;;;;;19.48;88.85;99910.13;5031954;28;878;-63
2021/07/08 02:42:08;;;;;;;;;;;;;;;19.49;88.60;99910.91;5031594;28;1894;-63
2021/07/08 02:44:35;;;;;;;;;;;;;;;19.49;88.64;99908.88;5031678;28;811;-64
2021/07/08 02:47:01;;;;;;;;;;;;;;;19.51;88.72;99914.81;5031690;28;874;-63
2021/07/08 02:49:28;;;;;;;;;;;;;;;19.55;88.53;99911.88;5031577;28;795;-64
2021/07/08 02:51:55;;;;;;;;;;;;;;;19.55;88.46;99915.44;5031497;28;871;-64
2021/07/08 02:54:22;;;;;;;;;;;;;;;19.59;88.63;99926.53;5031569;28;831;-64
2021/07/08 02:56:49;;;;;;;;;;;;;;;19.50;88.03;99924.47;5031598;28;815;-65
2021/07/08 02:59:16;;;;;;;;;;;;;;;19.24;87.96;99923.84;5031442;28;819;-64
2021/07/08 03:01:42;;;;;;;;;;;;;;;19.02;88.26;99925.94;5031474;28;1957;-64
2021/07/08 03:04:09;;;;;;;;;;;;;;;18.89;88.70;99926.00;5031509;28;890;-64
2021/07/08 03:06:35;;;;;;;;;;;;;;;18.83;88.92;99927.84;5031402;28;866;-64
2021/07/08 03:09:03;;;;;;;;;;;;;;;18.82;89.16;99929.06;5031388;28;839;-64
2021/07/08 03:11:30;;;;;;;;;;;;;;;18.82;89.26;99924.25;5031329;28;850;-64
2021/07/08 03:13:56;;;;;;;;;;;;;;;18.85;89.33;99926.13;5031414;28;1447;-65
2021/07/08 03:16:23;;;;;;;;;;;;;;;18.88;89.24;99930.84;5031336;28;850;-65
2021/07/08 03:18:50;;;;;;;;;;;;;;;18.91;89.26;99929.91;5031353;28;844;-65
2021/07/08 03:21:17;;;;;;;;;;;;;;;19.03;89.52;99939.47;5031105;28;1981;-64
2021/07/08 03:23:43;;;;;;;;;;;;;;;19.11;89.46;99931.56;5031314;28;839;-65
2021/07/08 03:26:10;;;;;;;;;;;;;;;19.22;89.60;99931.16;5031216;28;906;-64
2021/07/08 03:28:37;;;;;;;;;;;;;;;19.41;89.65;99929.25;5031317;28;830;-65
2021/07/08 03:31:04;;;;;;;;;;;;;;;19.61;89.37;99928.84;5034652;28;910;-65
2021/07/08 03:33:30;;;;;;;;;;;;;;;19.72;89.19;99935.63;5035220;28;882;-65
2021/07/08 03:35:57;;;;;;;;;;;;;;;19.82;89.08;99932.84;5035183;28;941;-65
2021/07/08 03:38:24;;;;;;;;;;;;;;;19.95;89.07;99936.28;5035317;28;856;-65
2021/07/08 03:40:50;;;;;;;;;;;;;;;20.11;89.19;99938.06;5035421;28;1914;-65
2021/07/08 03:43:17;;;;;;;;;;;;;;;20.26;88.76;99936.19;5035201;28;881;-65
2021/07/08 03:45:43;;;;;;;;;;;;;;;20.52;89.53;99941.50;5035620;28;810;-65
2021/07/08 03:48:10;;;;;;;;;;;;;;;20.68;89.19;99948.88;5034939;28;818;-66
2021/07/08 03:50:36;;;;;;;;;;;;;;;20.85;88.75;99941.69;5035178;28;819;-66
2021/07/08 03:53:02;;;;;;;;;;;;;;;21.04;88.32;99938.81;5034684;28;866;-66
2021/07/08 03:55:28;;;;;;;;;;;;;;;21.20;87.29;99941.28;5034702;28;868;-65
2021/07/08 03:57:55;;;;;;;;;;;;;;;21.34;85.95;99953.91;5034910;28;803;-64
2021/07/08 04:00:30;;;;;;;;;;;;;;;21.49;85.16;99952.00;5034521;28;1890;-65
2021/07/08 04:02:58;;;;;;;;;;;;;;;21.63;84.53;99950.53;5034665;28;850;-66
2021/07/08 04:05:25;;;;;;;;;;;;;;;21.78;84.24;99948.59;5034428;28;814;-66
2021/07/08 04:07:51;;;;;;;;;;;;;;;21.94;84.29;99943.84;5034730;28;839;-67
2021/07/08 04:10:18;;;;;;;;;;;;;;;22.14;83.90;99938.38;5034338;28;921;-65
2021/07/08 04:12:45;;;;;;;;;;;;;;;22.49;84.74;99951.94;5034493;28;936;-66
2021/07/08 04:15:11;;;;;;;;;;;;;;;22.71;82.21;99951.59;5034226;28;1396;-63
2021/07/08 04:17:38;;;;;;;;;;;;;;;22.75;80.61;99951.41;5034236;28;803;-66
2021/07/08 04:20:07;;;;;;;;;;;;;;;22.81;80.97;99952.28;5034114;28;1906;-66
2021/07/08 04:22:33;;;;;;;;;;;;;;;22.98;80.83;99953.38;5034156;28;901;-66
2021/07/08 04:25:00;;;;;;;;;;;;;;;23.23;78.67;99957.66;5034101;28;846;-64
2021/07/08 04:27:27;;;;;;;;;;;;;;;23.51;76.52;99954.53;5034093;28;823;-66
2021/07/08 04:29:53;;;;;;;;;;;;;;;23.92;74.65;99962.34;5034063;28;811;-64
2021/07/08 04:32:20;;;;;;;;;;;;;;;24.11;73.16;99960.03;5033933;28;850;-67
2021/07/08 04:34:45;;;;;;;;;;;;;;;24.29;71.60;99971.06;5034074;28;849;-65
2021/07/08 04:37:12;;;;;;;;;;;;;;;24.39;71.14;99963.25;5033992;28;933;-66
2021/07/08 04:39:38;;;;;;;;;;;;;;;24.68;70.50;99959.47;5034140;28;909;-63
2021/07/08 04:42:05;;;;;;;;;;;;;;;25.07;68.65;99959.09;5033921;28;1923;-65
2021/07/08 04:44:32;;;;;;;;;;;;;;;25.27;67.91;99967.56;5033955;28;871;-65
2021/07/08 04:47:00;;;;;;;;;;;;;;;25.22;67.63;99967.50;5034168;28;977;-65
2021/07/08 04:49:26;;;;;;;;;;;;;;;24.97;69.10;99978.31;5033737;28;878;-66
2021/07/08 04:51:53;;;;;;;;;;;;;;;24.77;68.78;99978.31;5033899;28;819;-63
2021/07/08 04:54:19;;;;;;;;;;;;;;;24.60;69.88;99972.47;5033859;28;889;-65
2021/07/08 04:56:46;;;;;;;;;;;;;;;24.49;69.37;99978.78;5034275;28;838;-65
2021/07/08 04:59:12;;;;;;;;;;;;;;;24.44;68.64;99974.59;5033667;28;881;-65
2021/07/08 05:01:39;;;;;;;;;;;;;;;24.48;68.41;99976.44;5033392;28;1894;-65
2021/07/08 05:04:05;;;;;;;;;;;;;;;24.53;68.68;99972.94;5033356;28;791;-63
2021/07/08 05:06:33;;;;;;;;;;;;;;;24.68;68.94;99984.16;5033330;28;921;-65
2021/07/08 05:14:10;;;;;;;;;;;;;;;25.89;65.35;99994.81;5354540;22;1680;-66
2021/07/08 05:16:36;;;;;;;;;;;;;;;27.01;62.91;99995.34;5053159;28;834;-66
2021/07/08 05:19:03;;;;;;;;;;;;;;;27.66;59.66;99997.19;5053169;28;822;-63
2021/07/08 05:21:29;;;;;;;;;;;;;;;27.93;57.88;99989.19;5052872;28;1976;-65
2021/07/08 05:23:59;;;;;;;;;;;;;;;28.02;57.27;99996.66;5053039;28;908;-63
2021/07/08 05:26:28;;;;;;;;;;;;;;;28.26;57.18;100004.59;5052878;28;861;-65
2021/07/08 05:28:55;;;;;;;;;;;;;;;28.66;55.75;100003.19;5052578;28;1049;-62
2021/07/08 05:31:21;;;;;;;;;;;;;;;29.07;55.04;100010.97;5053134;28;804;-64
2021/07/08 05:33:46;;;;;;;;;;;;;;;29.30;53.66;100003.06;5053168;28;885;-63
2021/07/08 05:36:13;;;;;;;;;;;;;;;29.44;53.06;100017.47;5053083;28;818;-62
2021/07/08 05:38:38;;;;;;;;;;;;;;;29.49;52.94;100016.66;5052884;28;881;-63
2021/07/08 05:41:05;;;;;;;;;;;;;;;29.55;51.80;100020.22;5052810;28;1890;-63
2021/07/08 05:43:31;;;;;;;;;;;;;;;29.71;52.44;100024.25;5052450;28;826;-64
2021/07/08 05:45:58;;;;;;;;;;;;;;;29.78;50.52;100025.75;5052562;28;869;-62
2021/07/08 05:48:23;;;;;;;;;;;;;;;29.78;51.17;100022.91;5052592;28;802;-63
2021/07/08 05:50:50;;;;;;;;;;;;;;;30.14;50.62;100029.28;5052706;28;908;-64
2021/07/08 05:53:19;;;;;;;;;;;;;;;30.53;49.83;100028.88;5034250;28;1299;-64
2021/07/08 05:55:46;;;;;;;;;;;;;;;30.74;48.25;100022.63;5052381;28;896;-62
2021/07/08 05:58:12;;;;;;;;;;;;;;;30.47;49.11;100021.66;5052203;28;858;-62
2021/07/08 06:00:38;;;;;;;;;;;;;;;30.60;49.94;100030.34;5052242;28;1995;-63
2021/07/08 06:03:05;;;;;;;;;;;;;;;31.18;48.48;100031.91;5052677;28;826;-63
2021/07/08 06:05:31;;;;;;;;;;;;;;;30.96;48.76;100041.59;5052396;28;872;-63
2021/07/08 06:07:58;;;;;;;;;;;;;;;30.70;49.92;100034.38;5052402;28;909;-63
2021/07/08 06:10:24;;;;;;;;;;;;;;;29.69;51.50;100044.72;5052377;28;1028;-63
2021/07/08 06:12:51;;;;;;;;;;;;;;;29.54;51.75;100044.31;5052470;28;986;-64
2021/07/08 06:15:20;;;;;;;;;;;;;;;29.41;51.83;100035.63;5051956;28;1260;-63
2021/07/08 06:17:47;;;;;;;;;;;;;;;29.63;51.39;100031.81;5052189;28;847;-63
2021/07/08 06:20:14;;;;;;;;;;;;;;;29.40;52.92;100039.75;5052043;28;1914;-64
2021/07/08 06:22:41;;;;;;;;;;;;;;;30.07;50.63;100032.72;5052089;28;873;-62
2021/07/08 06:25:07;;;;;;;;;;;;;;;30.82;47.30;100034.97;5051967;28;890;-62
2021/07/08 06:27:34;;;;;;;;;;;;;;;30.86;48.58;100037.53;5052038;28;838;-63
2021/07/08 06:30:00;;;;;;;;;;;;;;;31.10;47.65;100034.63;5051999;28;818;-63
2021/07/08 06:32:27;;;;;;;;;;;;;;;30.80;48.14;100037.59;5051873;28;870;-64
2021/07/08 06:34:54;;;;;;;;;;;;;;;30.34;50.46;100033.75;5051752;28;981;-64
2021/07/08 06:37:20;;;;;;;;;;;;;;;30.69;48.91;100023.50;5052014;28;837;-63
2021/07/08 06:39:47;;;;;;;;;;;;;;;28.86;52.76;100027.63;5051590;28;963;-63
2021/07/08 06:42:13;;;;;;;;;;;;;;;29.02;53.73;100026.00;5051397;28;1886;-63
2021/07/08 06:44:40;;;;;;;;;;;;;;;29.68;51.42;100030.97;5051622;28;870;-63
2021/07/08 06:47:09;;;;;;;;;;;;;;;30.45;50.46;100025.09;5051595;28;807;-63
2021/07/08 06:49:36;;;;;;;;;;;;;;;31.60;47.53;100037.25;5051533;28;920;-64
2021/07/08 06:52:03;;;;;;;;;;;;;;;32.09;46.74;100031.22;5052195;28;802;-64
2021/07/08 06:54:30;;;;;;;;;;;;;;;32.30;45.63;100022.75;5051827;28;782;-63
2021/07/08 06:56:56;;;;;;;;;;;;;;;32.50;45.09;100018.47;5051962;28;849;-62
2021/07/08 06:59:23;;;;;;;;;;;;;;;32.89;44.54;100028.34;5051121;28;822;-64
2021/07/08 07:01:48;;;;;;;;;;;;;;;33.40;43.92;100025.09;5051462;28;1882;-61
2021/07/08 07:04:15;;;;;;;;;;;;;;;34.29;42.70;100026.22;5051977;28;861;-64
2021/07/08 07:06:42;;;;;;;;;;;;;;;34.95;41.05;100030.56;5055703;28;813;-64
2021/07/08 07:09:08;;;;;;;;;;;;;;;34.01;41.21;100029.81;5055943;28;842;-64
2021/07/08 07:11:35;;;;;;;;;;;;;;;31.85;45.57;100032.91;5055496;28;825;-65
2021/07/08 07:14:01;;;;;;;;;;;;;;;31.33;47.04;100042.84;5055442;28;1263;-63
2021/07/08 07:16:28;;;;;;;;;;;;;;;30.73;48.62;100032.53;5054311;28;1436;-63
2021/07/08 07:18:54;;;;;;;;;;;;;;;28.82;53.33;100040.59;5055392;28;877;-64
2021/07/08 07:21:21;;;;;;;;;;;;;;;27.78;57.35;100046.25;5055559;28;1959;-66
2021/07/08 07:23:47;;;;;;;;;;;;;;;28.45;55.53;100044.59;5055337;28;830;-65
2021/07/08 07:26:16;;;;;;;;;;;;;;;27.34;57.94;100044.91;5055219;28;991;-64
2021/07/08 07:28:43;;;;;;;;;;;;;;;26.40;61.04;100044.03;5055176;28;837;-66
2021/07/08 07:31:09;;;;;;;;;;;;;;;27.83;58.83;100042.63;5055199;28;829;-64
2021/07/08 07:33:35;;;;;;;;;;;;;;;30.45;51.61;100038.53;5055012;28;818;-63
2021/07/08 07:36:02;;;;;;;;;;;;;;;32.67;47.12;100035.31;5055155;28;890;-63
2021/07/08 07:38:29;;;;;;;;;;;;;;;34.14;42.09;100039.13;5055098;28;780;-63
2021/07/08 07:40:56;;;;;;;;;;;;;;;35.06;39.94;100033.09;5054747;28;1945;-63
2021/07/08 07:43:23;;;;;;;;;;;;;;;35.45;39.19;100042.59;5054878;28;901;-64
2021/07/08 07:45:49;;;;;;;;;;;;;;;35.86;39.14;100048.56;5054831;28;818;-64
2021/07/08 07:48:16;;;;;;;;;;;;;;;36.39;37.90;100045.66;5054766;28;798;-62
2021/07/08 07:50:43;;;;;;;;;;;;;;;35.22;38.98;100048.28;5054713;28;850;-63
2021/07/08 07:53:09;;;;;;;;;;;;;;;33.22;43.09;100044.00;5054656;28;854;-64
2021/07/08 07:55:36;;;;;;;;;;;;;;;33.31;42.24;100043.53;5054816;28;834;-63
2021/07/08 07:58:03;;;;;;;;;;;;;;;31.79;44.81;100065.78;5054362;28;844;-64
2021/07/08 08:00:30;;;;;;;;;;;;;;;29.26;51.18;100053.81;5054589;28;1999;-64
2021/07/08 08:02:57;;;;;;;;;;;;;;;27.73;55.52;100061.19;5054571;28;812;-66
2021/07/08 08:05:34;;;;;;;;;;;;;;;27.53;57.06;100069.97;5054494;28;795;-64
2021/07/08 08:10:46;;;;;;;;;;;;;;;32.55;47.23;100037.63;5054426;28;781;-63
2021/07/08 08:13:12;;;;;;;;;;;;;;;34.24;42.65;100042.25;5054070;28;1178;-63
2021/07/08 08:15:39;;;;;;;;;;;;;;;35.20;40.24;100047.31;5053828;28;850;-63
2021/07/08 08:18:05;;;;;;;;;;;;;;;34.82;37.88;100048.69;5054159;28;964;-64
2021/07/08 08:20:31;;;;;;;;;;;;;;;34.07;39.26;100045.53;5054075;28;1965;-63
2021/07/08 08:22:58;;;;;;;;;;;;;;;31.85;43.74;100064.34;5054148;28;889;-63
2021/07/08 08:25:25;;;;;;;;;;;;;;;31.72;45.02;100053.66;5054099;28;803;-63
2021/07/08 08:27:51;;;;;;;;;;;;;;;33.19;43.85;100044.34;5054111;28;794;-63
2021/07/08 08:30:17;;;;;;;;;;;;;;;34.24;41.21;100050.09;5054075;28;956;-63
2021/07/08 08:32:44;;;;;;;;;;;;;;;34.82;39.65;100045.06;5054155;28;885;-63
2021/07/08 08:35:11;;;;;;;;;;;;;;;35.33;39.57;100041.41;5054306;28;858;-64
2021/07/08 08:37:41;;;;;;;;;;;;;;;35.28;38.51;100037.38;5053918;28;845;-64
2021/07/08 08:40:08;;;;;;;;;;;;;;;35.66;39.75;100044.56;5053736;28;1882;-65
2021/07/08 08:42:35;;;;;;;;;;;;;;;36.58;37.38;100048.09;5053885;28;806;-63
2021/07/08 08:45:03;;;;;;;;;;;;;;;34.78;38.51;100039.69;5053867;28;885;-64
2021/07/08 08:47:30;;;;;;;;;;;;;;;32.09;43.24;100039.81;5053821;28;854;-66
2021/07/08 08:50:00;;;;;;;;;;;;;;;30.26;47.17;100047.03;5053893;28;944;-65
2021/07/08 08:52:28;;;;;;;;;;;;;;;29.10;50.72;100038.41;5053599;28;831;-66
2021/07/08 08:54:55;;;;;;;;;;;;;;;30.46;49.37;100045.81;5053945;28;814;-64
2021/07/08 08:57:21;;;;;;;;;;;;;;;32.11;46.28;100049.38;5053830;28;857;-62
2021/07/08 08:59:48;;;;;;;;;;;;;;;32.66;43.33;100045.97;5053633;28;1185;-62
2021/07/08 09:02:20;;;;;;;;;;;;;;;32.90;42.65;100047.81;5053481;28;1894;-63
2021/07/08 09:04:48;;;;;;;;;;;;;;;33.15;41.60;100038.97;5053388;28;872;-63
2021/07/08 09:07:26;;;;;;;;;;;;;;;33.71;42.45;100034.00;5053515;28;857;-63
2021/07/08 09:09:57;;;;;;;;;;;;;;;34.41;40.79;100035.28;5053173;28;806;-62
2021/07/08 09:12:24;;;;;;;;;;;;;;;34.38;37.94;100033.56;5053460;28;992;-62
2021/07/08 09:15:14;;;;;;;;;;;;;;;34.12;40.03;100029.56;5053207;28;1399;-64
2021/07/08 09:17:41;;;;;;;;;;;;;;;34.29;38.66;100031.94;5045182;28;1652;-63
2021/07/08 09:20:08;;;;;;;;;;;;;;;34.72;38.91;100021.88;5053080;28;1965;-64
2021/07/08 09:22:35;;;;;;;;;;;;;;;34.98;38.35;100038.06;5053330;28;853;-63
2021/07/08 09:25:22;;;;;;;;;;;;;;;34.42;39.18;100040.47;5053080;28;791;-63
2021/07/08 09:27:50;;;;;;;;;;;;;;;31.70;44.37;100058.38;5052322;28;849;-66
2021/07/08 09:30:25;;;;;;;;;;;;;;;30.30;48.08;100050.41;5053069;28;853;-65
2021/07/08 09:32:52;;;;;;;;;;;;;;;30.13;48.70;100039.16;5052868;28;835;-63
2021/07/08 09:35:34;;;;;;;;;;;;;;;29.78;48.54;100040.75;5052775;28;908;-64
2021/07/08 09:38:13;;;;;;;;;;;;;;;29.02;50.58;100039.44;5052736;28;857;-65
2021/07/08 09:40:40;;;;;;;;;;;;;;;28.55;51.49;100043.03;5052557;28;1906;-67
2021/07/08 09:43:07;;;;;;;;;;;;;;;29.17;51.31;100039.91;5052667;28;822;-66
2021/07/08 09:45:53;;;;;;;;;;;;;;;30.02;47.00;100039.25;5052600;28;810;-66
2021/07/08 09:48:20;;;;;;;;;;;;;;;30.89;45.58;100040.09;5052385;28;1469;-63
2021/07/08 09:50:47;;;;;;;;;;;;;;;31.25;44.22;100051.25;5052507;28;810;-63
2021/07/08 09:53:19;;;;;;;;;;;;;;;31.33;43.31;100057.13;5052429;28;908;-62
2021/07/08 09:58:54;;;;;;;;;;;;;;;31.84;43.41;100045.69;5052405;28;676;-63
2021/07/08 10:01:20;;;;;;;;;;;;;;;31.12;44.49;100051.97;5052184;28;1947;-63
2021/07/08 10:03:50;;;;;;;;;;;;;;;30.29;47.91;100046.75;5052546;28;857;-65
2021/07/08 10:06:18;;;;;;;;;;;;;;;30.18;48.10;100043.25;5052167;28;822;-64
2021/07/08 10:08:46;;;;;;;;;;;;;;;30.80;46.32;100039.69;5052823;28;755;-63
2021/07/08 10:11:14;;;;;;;;;;;;;;;31.19;46.96;100033.44;5052350;28;830;-64
2021/07/08 10:13:43;;;;;;;;;;;;;;;31.47;46.29;100037.97;5052120;28;1209;-64
2021/07/08 10:16:12;;;;;;;;;;;;;;;30.81;45.53;100052.63;5052112;28;830;-64
2021/07/08 10:18:42;;;;;;;;;;;;;;;29.75;47.53;100046.78;5051962;28;811;-66
2021/07/08 10:21:09;;;;;;;;;;;;;;;29.45;50.19;100044.66;5034015;28;1914;-64
2021/07/08 10:23:37;;;;;;;;;;;;;;;29.34;50.07;100048.34;5051890;28;807;-63
2021/07/08 10:26:06;;;;;;;;;;;;;;;29.23;49.87;100043.50;5052007;28;898;-66
2021/07/08 10:28:35;;;;;;;;;;;;;;;29.39;49.66;100043.91;5052060;28;873;-66
2021/07/08 10:31:02;;;;;;;;;;;;;;;29.38;49.96;100050.88;5051802;28;830;-64
2021/07/08 10:33:30;;;;;;;;;;;;;;;29.70;49.39;100037.75;5051713;28;873;-64
2021/07/08 10:35:56;;;;;;;;;;;;;;;30.15;49.34;100038.59;5051672;28;818;-66
2021/07/08 10:38:40;;;;;;;;;;;;;;;30.41;46.85;100038.88;5051418;28;811;-66
2021/07/08 10:41:12;;;;;;;;;;;;;;;30.16;46.58;100037.31;5051495;28;1973;-65
2021/07/08 10:43:40;;;;;;;;;;;;;;;29.61;47.34;100035.19;5051929;28;811;-65
2021/07/08 10:46:08;;;;;;;;;;;;;;;29.67;48.13;100033.06;5051573;28;913;-65
2021/07/08 10:48:45;;;;;;;;;;;;;;;30.38;46.76;100036.31;5051521;28;930;-64
2021/07/08 10:51:34;;;;;;;;;;;;;;;30.34;46.20;100028.03;5051549;28;822;-63
2021/07/08 10:53:59;;;;;;;;;;;;;;;29.85;46.58;100023.09;5051499;28;873;-66
2021/07/08 10:56:33;;;;;;;;;;;;;;;29.42;48.07;100029.38;5051640;28;826;-66
2021/07/08 10:59:11;;;;;;;;;;;;;;;28.89;48.81;100029.44;5051415;28;902;-64
2021/07/08 11:01:40;;;;;;;;;;;;;;;28.39;51.14;100046.69;5051495;28;1906;-65
2021/07/08 11:04:05;;;;;;;;;;;;;;;27.81;51.85;100042.34;5051418;28;814;-67
2021/07/08 11:06:32;;;;;;;;;;;;;;;27.28;54.24;100055.47;5051538;28;806;-67
2021/07/08 11:09:16;;;;;;;;;;;;;;;26.68;56.59;100047.81;5051357;28;797;-67
2021/07/08 11:11:46;;;;;;;;;;;;;;;25.92;60.32;100044.75;5051503;28;826;-65
2021/07/08 11:14:16;;;;;;;;;;;;;;;25.21;63.25;100048.75;5051441;28;1394;-65
2021/07/08 11:16:45;;;;;;;;;;;;;;;24.33;67.75;100045.06;5051330;28;840;-66
2021/07/08 11:19:12;;;;;;;;;;;;;;;24.19;68.55;100037.41;5051335;28;1003;-66
2021/07/08 11:21:51;;;;;;;;;;;;;;;24.34;68.40;100043.00;5051097;28;1980;-66
2021/07/08 11:24:18;;;;;;;;;;;;;;;25.10;66.97;100034.47;5051233;28;869;-64
2021/07/08 11:26:53;;;;;;;;;;;;;;;26.63;62.03;100030.78;5051379;28;849;-65
2021/07/08 11:29:38;;;;;;;;;;;;;;;28.50;59.76;100023.91;5051114;28;949;-65
2021/07/08 11:32:18;;;;;;;;;;;;;;;29.33;53.36;100024.00;5051368;28;787;-65
2021/07/08 11:34:57;;;;;;;;;;;;;;;29.20;53.02;100023.84;5051056;28;1022;-66
2021/07/08 11:37:28;;;;;;;;;;;;;;;29.01;52.37;100021.59;5051017;28;806;-67
2021/07/08 11:39:57;;;;;;;;;;;;;;;28.52;53.26;100032.69;5051076;28;794;-67
2021/07/08 11:42:25;;;;;;;;;;;;;;;28.28;54.22;100034.03;5051021;28;1885;-65
2021/07/08 11:44:55;;;;;;;;;;;;;;;28.10;55.05;100037.44;5051081;28;826;-66
2021/07/08 11:47:22;;;;;;;;;;;;;;;28.12;55.26;100034.06;5050899;28;885;-65
2021/07/08 11:49:49;;;;;;;;;;;;;;;28.17;54.17;100027.63;5050963;28;779;-67
2021/07/08 11:52:16;;;;;;;;;;;;;;;27.95;54.64;100019.91;5054660;28;803;-67
2021/07/08 11:55:13;;;;;;;;;;;;;;;27.76;56.67;100023.28;5054693;28;818;-67
2021/07/08 11:57:50;;;;;;;;;;;;;;;29.45;54.84;100025.47;5041856;28;1259;-66
2021/07/08 12:00:35;;;;;;;;;;;;;;;31.02;50.59;100027.97;5054502;28;1890;-66
2021/07/08 12:03:17;;;;;;;;;;;;;;;30.88;48.92;100030.00;5054412;28;909;-67
2021/07/08 12:05:44;;;;;;;;;;;;;;;30.46;50.11;100031.56;5054398;28;892;-67
2021/07/08 12:08:31;;;;;;;;;;;;;;;29.85;51.48;100030.84;5054429;28;869;-67
2021/07/08 12:11:11;;;;;;;;;;;;;;;28.88;52.74;100036.41;5054317;28;1156;-67
2021/07/08 12:13:58;;;;;;;;;;;;;;;28.27;54.30;100034.56;5054158;28;1251;-65
2021/07/08 12:16:30;;;;;;;;;;;;;;;27.97;55.35;100034.34;5054121;28;1057;-66
2021/07/08 12:18:58;;;;;;;;;;;;;;;27.93;56.01;100040.31;5054695;28;819;-67
2021/07/08 12:21:26;;;;;;;;;;;;;;;28.09;56.09;100042.34;5054362;28;1918;-67
2021/07/08 12:23:54;;;;;;;;;;;;;;;27.84;56.60;100049.81;5054275;28;858;-67
2021/07/08 12:26:30;;;;;;;;;;;;;;;27.22;58.67;100069.66;5054118;28;814;-67
2021/07/08 12:29:15;;;;;;;;;;;;;;;25.37;65.71;100086.19;5054094;28;815;-63
2021/07/08 12:31:42;;;;;;;;;;;;;;;23.28;73.88;100085.94;5053947;28;908;-63
2021/07/08 12:34:09;;;;;;;;;;;;;;;22.44;78.64;100090.56;5054003;28;905;-61
2021/07/08 12:36:35;;;;;;;;;;;;;;;22.01;80.68;100084.19;5053796;28;795;-63
2021/07/08 12:39:03;;;;;;;;;;;;;;;21.87;81.37;100074.38;5052543;28;1195;-63
2021/07/08 12:41:30;;;;;;;;;;;;;;;21.98;81.51;100066.22;5053794;28;1894;-63
2021/07/08 12:43:57;;;;;;;;;;;;;;;21.95;82.14;100086.06;5053771;28;858;-63
2021/07/08 12:46:32;;;;;;;;;;;;;;;21.92;82.41;100084.22;5053741;28;862;-62
2021/07/08 12:48:57;;;;;;;;;;;;;;;21.82;82.66;100081.41;5053647;28;833;-62
2021/07/08 12:51:26;;;;;;;;;;;;;;;21.70;83.45;100090.03;5053666;28;873;-61
2021/07/08 12:53:53;;;;;;;;;;;;;;;21.74;84.12;100080.22;5053559;28;841;-62
2021/07/08 12:56:23;;;;;;;;;;;;;;;21.87;84.24;100082.84;5053841;28;833;-62
2021/07/08 12:58:58;;;;;;;;;;;;;;;21.93;84.73;100089.34;5053458;28;837;-62
2021/07/08 13:01:28;;;;;;;;;;;;;;;22.00;84.78;100085.44;5053703;28;1893;-61
2021/07/08 13:03:59;;;;;;;;;;;;;;;22.06;84.91;100094.00;5053438;28;862;-61
2021/07/08 13:06:27;;;;;;;;;;;;;;;22.09;84.99;100096.66;5053218;28;803;-61
2021/07/08 13:09:07;;;;;;;;;;;;;;;22.16;85.11;100089.91;5053502;28;909;-61
2021/07/08 13:11:35;;;;;;;;;;;;;;;22.30;85.04;100091.28;5053218;28;807;-61
2021/07/08 13:14:18;;;;;;;;;;;;;;;22.40;85.10;100093.56;5053101;28;1206;-61